createdAt,value
2016-05-30T00:00:34.575Z,22.45
2016-05-30T00:01:34.563Z,22.56
2016-05-30T00:02:34.549Z,22.63
2016-05-30T00:03:34.536Z,22.52
2016-05-30T00:04:34.617Z,22.56
2016-05-30T00:05:34.495Z,22.59
2016-05-30T00:06:35.419Z,22.6
2016-05-30T00:07:34.485Z,22.56
2016-05-30T00:08:34.315Z,22.57
2016-05-30T00:09:34.459Z,22.56
2016-05-30T00:10:34.446Z,22.6
2016-05-30T00:11:34.293Z,22.6
2016-05-30T00:12:34.638Z,22.57
2016-05-30T00:13:34.391Z,22.57
2016-05-30T00:14:34.394Z,22.59
2016-05-30T00:15:34.381Z,22.59
2016-05-30T00:16:34.368Z,22.46
2016-05-30T00:17:34.356Z,22.56
2016-05-30T00:18:34.358Z,22.59
2016-05-30T00:19:34.329Z,22.59
2016-05-30T00:20:34.629Z,22.59
2016-05-30T00:21:35.569Z,22.44
2016-05-30T00:22:34.306Z,22.59
2016-05-30T00:23:34.278Z,22.45
2016-05-30T00:24:34.264Z,22.45
2016-05-30T00:25:34.252Z,22.48
2016-05-30T00:26:34.254Z,22.57
2016-05-30T00:27:34.272Z,22.48
2016-05-30T00:28:34.667Z,22.56
2016-05-30T00:29:34.200Z,22.51
2016-05-30T00:30:34.187Z,22.52
2016-05-30T00:31:34.189Z,22.44
2016-05-30T00:32:34.161Z,22.38
2016-05-30T00:33:34.148Z,22.38
2016-05-30T00:34:33.822Z,22.41
2016-05-30T00:35:34.263Z,22.3
2016-05-30T00:36:34.657Z,22.33
2016-05-30T00:37:34.097Z,22.17
2016-05-30T00:38:34.083Z,22.26
2016-05-30T00:39:34.070Z,22.21
2016-05-30T00:40:34.058Z,22.2
2016-05-30T00:41:34.046Z,22.14
2016-05-30T00:42:34.032Z,22.12
2016-05-30T00:43:34.316Z,22.21
2016-05-30T00:44:34.006Z,22.2
2016-05-30T00:45:33.977Z,22.19
2016-05-30T00:46:33.980Z,22.14
2016-05-30T00:47:33.952Z,22.09
2016-05-30T00:48:33.798Z,21.94
2016-05-30T00:49:33.926Z,21.93
2016-05-30T00:50:33.913Z,22.09
2016-05-30T00:51:34.165Z,22.15
2016-05-30T00:52:33.762Z,22.2
2016-05-30T00:53:33.873Z,22.23
2016-05-30T00:54:33.876Z,22.24
2016-05-30T00:55:33.864Z,22.36
2016-05-30T00:56:33.851Z,22.3
2016-05-30T00:57:33.822Z,22.3
2016-05-30T00:58:33.809Z,22.3
2016-05-30T00:59:34.312Z,22.31
2016-05-30T01:00:33.783Z,22.33
2016-05-30T01:01:33.770Z,22.29
2016-05-30T01:02:33.757Z,22.35
2016-05-30T01:03:33.760Z,22.33
2016-05-30T01:04:33.732Z,22.38
2016-05-30T01:05:33.719Z,22.33
2016-05-30T01:06:33.768Z,22.38
2016-05-30T01:07:34.302Z,22.33
2016-05-30T01:08:33.524Z,22.42
2016-05-30T01:09:33.682Z,22.36
2016-05-30T01:10:33.654Z,22.38
2016-05-30T01:11:33.640Z,22.35
2016-05-30T01:12:33.628Z,22.35
2016-05-30T01:13:33.631Z,22.36
2016-05-30T01:14:33.602Z,22.42
2016-05-30T01:15:33.573Z,22.39
2016-05-30T01:16:33.577Z,22.33
2016-05-30T01:17:33.563Z,22.33
2016-05-30T01:18:33.551Z,22.39
2016-05-30T01:19:33.537Z,22.36
2016-05-30T01:20:33.368Z,22.35
2016-05-30T01:21:34.215Z,22.39
2016-05-30T01:22:33.515Z,22.39
2016-05-30T01:23:34.423Z,22.39
2016-05-30T01:24:33.473Z,22.33
2016-05-30T01:25:33.460Z,22.33
2016-05-30T01:26:33.292Z,22.45
2016-05-30T01:27:33.434Z,22.39
2016-05-30T01:28:33.422Z,22.39
2016-05-30T01:29:33.408Z,22.36
2016-05-30T01:30:33.395Z,22.39
2016-05-30T01:31:33.586Z,22.29
2016-05-30T01:32:33.385Z,22.31
2016-05-30T01:33:33.216Z,22.38
2016-05-30T01:34:33.343Z,22.31
2016-05-30T01:35:33.175Z,22.3
2016-05-30T01:36:33.755Z,22.38
2016-05-30T01:37:33.164Z,22.38
2016-05-30T01:38:33.291Z,22.3
2016-05-30T01:39:33.576Z,22.36
2016-05-30T01:40:33.282Z,22.33
2016-05-30T01:41:33.238Z,22.36
2016-05-30T01:42:33.224Z,22.31
2016-05-30T01:43:33.243Z,22.33
2016-05-30T01:44:33.215Z,22.38
2016-05-30T01:45:33.201Z,22.35
2016-05-30T01:46:33.173Z,22.36
2016-05-30T01:47:33.018Z,22.31
2016-05-30T01:48:33.162Z,22.33
2016-05-30T01:49:33.149Z,22.31
2016-05-30T01:50:33.137Z,22.39
2016-05-30T01:51:33.279Z,22.35
2016-05-30T01:52:33.111Z,22.31
2016-05-30T01:53:32.942Z,22.36
2016-05-30T01:54:33.241Z,22.3
2016-05-30T01:55:33.072Z,22.36
2016-05-30T01:56:33.058Z,22.33
2016-05-30T01:57:33.030Z,22.39
2016-05-30T01:58:32.877Z,22.35
2016-05-30T01:59:33.005Z,22.35
2016-05-30T02:00:32.835Z,22.36
2016-05-30T02:01:32.979Z,22.3
2016-05-30T02:02:33.294Z,22.33
2016-05-30T02:03:32.968Z,22.33
2016-05-30T02:04:32.939Z,22.36
2016-05-30T02:05:32.927Z,22.29
2016-05-30T02:06:33.789Z,22.31
2016-05-30T02:07:33.433Z,22.29
2016-05-30T02:08:32.748Z,22.29
2016-05-30T02:09:32.874Z,22.26
2016-05-30T02:10:33.394Z,22.33
2016-05-30T02:11:32.849Z,22.24
2016-05-30T02:12:32.836Z,22.33
2016-05-30T02:13:32.824Z,22.33
2016-05-30T02:14:32.810Z,22.33
2016-05-30T02:15:32.813Z,22.24
2016-05-30T02:16:32.644Z,22.33
2016-05-30T02:17:32.772Z,22.35
2016-05-30T02:18:33.259Z,22.2
2016-05-30T02:19:32.590Z,22.35
2016-05-30T02:20:32.733Z,22.33
2016-05-30T02:21:32.579Z,22.21
2016-05-30T02:22:32.582Z,22.33
2016-05-30T02:23:32.537Z,22.3
2016-05-30T02:24:32.681Z,22.27
2016-05-30T02:25:32.668Z,22.29
2016-05-30T02:26:33.249Z,22.23
2016-05-30T02:27:32.658Z,22.26
2016-05-30T02:28:32.629Z,22.27
2016-05-30T02:29:32.617Z,22.31
2016-05-30T02:30:32.619Z,22.31
2016-05-30T02:31:32.591Z,22.35
2016-05-30T02:32:32.577Z,22.27
2016-05-30T02:33:32.409Z,22.27
2016-05-30T02:34:32.552Z,22.27
2016-05-30T02:35:32.539Z,22.35
2016-05-30T02:36:32.385Z,22.33
2016-05-30T02:37:32.513Z,22.3
2016-05-30T02:38:32.500Z,22.31
2016-05-30T02:39:32.484Z,22.33
2016-05-30T02:40:32.514Z,22.31
2016-05-30T02:41:32.527Z,22.38
2016-05-30T02:42:33.557Z,22.26
2016-05-30T02:43:32.556Z,22.31
2016-05-30T02:44:32.561Z,22.26
2016-05-30T02:45:32.559Z,22.35
2016-05-30T02:46:32.555Z,22.35
2016-05-30T02:47:32.395Z,22.33
2016-05-30T02:48:32.532Z,22.38
2016-05-30T02:49:32.527Z,22.26
2016-05-30T02:50:32.766Z,22.3
2016-05-30T02:51:32.367Z,22.33
2016-05-30T02:52:32.717Z,22.31
2016-05-30T02:53:32.488Z,22.31
2016-05-30T02:54:32.478Z,22.33
2016-05-30T02:55:32.482Z,22.29
2016-05-30T02:56:32.486Z,22.35
2016-05-30T02:57:32.443Z,22.26
2016-05-30T02:58:32.790Z,22.35
2016-05-30T02:59:32.434Z,22.29
2016-05-30T03:00:32.422Z,22.31
2016-05-30T03:01:32.411Z,22.36
2016-05-30T03:02:32.382Z,22.35
2016-05-30T03:03:32.214Z,22.38
2016-05-30T03:04:32.389Z,22.29
2016-05-30T03:05:32.360Z,22.3
2016-05-30T03:06:32.801Z,22.29
2016-05-30T03:07:32.397Z,22.3
2016-05-30T03:08:32.149Z,22.31
2016-05-30T03:09:32.309Z,22.31
2016-05-30T03:10:32.281Z,22.3
2016-05-30T03:11:32.267Z,22.35
2016-05-30T03:12:32.254Z,22.33
2016-05-30T03:13:32.241Z,22.35
2016-05-30T03:14:32.244Z,22.26
2016-05-30T03:15:32.215Z,22.27
2016-05-30T03:16:32.203Z,22.33
2016-05-30T03:17:32.205Z,22.27
2016-05-30T03:18:32.036Z,22.29
2016-05-30T03:19:32.179Z,22.24
2016-05-30T03:20:32.150Z,22.27
2016-05-30T03:21:32.997Z,22.31
2016-05-30T03:22:32.140Z,22.33
2016-05-30T03:23:32.111Z,22.31
2016-05-30T03:24:32.099Z,22.19
2016-05-30T03:25:32.117Z,22.24
2016-05-30T03:26:32.073Z,22.21
2016-05-30T03:27:32.059Z,22.24
2016-05-30T03:28:32.047Z,22.24
2016-05-30T03:29:32.034Z,22.24
2016-05-30T03:30:32.037Z,22.26
2016-05-30T03:31:32.023Z,22.29
2016-05-30T03:32:32.010Z,22.31
2016-05-30T03:33:31.998Z,22.27
2016-05-30T03:34:31.812Z,22.26
2016-05-30T03:35:31.972Z,22.24
2016-05-30T03:36:32.240Z,22.21
2016-05-30T03:37:32.415Z,22.27
2016-05-30T03:38:31.762Z,22.21
2016-05-30T03:39:31.905Z,22.29
2016-05-30T03:40:31.891Z,22.3
2016-05-30T03:41:31.879Z,22.26
2016-05-30T03:42:31.867Z,22.23
2016-05-30T03:43:31.853Z,22.3
2016-05-30T03:44:31.840Z,22.23
2016-05-30T03:45:31.828Z,22.2
2016-05-30T03:46:31.642Z,22.14
2016-05-30T03:47:31.801Z,22.26
2016-05-30T03:48:31.788Z,22.29
2016-05-30T03:49:31.775Z,22.17
2016-05-30T03:50:31.763Z,22.27
2016-05-30T03:51:32.250Z,22.29
2016-05-30T03:52:32.346Z,22.27
2016-05-30T03:53:31.724Z,22.17
2016-05-30T03:54:31.726Z,22.17
2016-05-30T03:55:31.901Z,22.21
2016-05-30T03:56:31.685Z,22.24
2016-05-30T03:57:31.672Z,22.26
2016-05-30T03:58:31.659Z,22.17
2016-05-30T03:59:31.646Z,22.23
2016-05-30T04:00:31.618Z,22.23
2016-05-30T04:01:31.620Z,22.3
2016-05-30T04:02:31.451Z,22.23
2016-05-30T04:03:31.797Z,22.26
2016-05-30T04:04:31.566Z,22.23
2016-05-30T04:05:31.568Z,22.29
2016-05-30T04:06:31.259Z,22.24
2016-05-30T04:07:31.542Z,22.27
2016-05-30T04:08:31.529Z,22.31
2016-05-30T04:09:31.517Z,22.27
2016-05-30T04:10:31.504Z,22.24
2016-05-30T04:11:31.835Z,22.29
2016-05-30T04:12:31.478Z,22.23
2016-05-30T04:13:31.480Z,22.27
2016-05-30T04:14:31.453Z,22.3
2016-05-30T04:15:31.423Z,22.3
2016-05-30T04:16:31.426Z,22.24
2016-05-30T04:17:31.414Z,22.19
2016-05-30T04:18:31.400Z,22.15
2016-05-30T04:19:31.825Z,22.17
2016-05-30T04:20:31.203Z,22.3
2016-05-30T04:21:32.127Z,22.19
2016-05-30T04:22:31.349Z,22.17
2016-05-30T04:23:31.320Z,22.17
2016-05-30T04:24:31.322Z,22.24
2016-05-30T04:25:31.138Z,22.2
2016-05-30T04:26:31.280Z,22.17
2016-05-30T04:27:31.877Z,22.29
2016-05-30T04:28:31.271Z,22.3
2016-05-30T04:29:31.085Z,22.19
2016-05-30T04:30:31.245Z,22.19
2016-05-30T04:31:31.216Z,22.21
2016-05-30T04:32:31.204Z,22.24
2016-05-30T04:33:31.190Z,22.21
2016-05-30T04:34:31.177Z,22.17
2016-05-30T04:35:31.867Z,22.31
2016-05-30T04:36:31.542Z,22.15
2016-05-30T04:37:31.593Z,22.17
2016-05-30T04:38:31.142Z,22.19
2016-05-30T04:39:31.112Z,22.15
2016-05-30T04:40:31.100Z,22.12
2016-05-30T04:41:31.087Z,22.14
2016-05-30T04:42:31.073Z,22.15
2016-05-30T04:43:31.156Z,22.11
2016-05-30T04:44:31.048Z,22.08
2016-05-30T04:45:31.035Z,22.12
2016-05-30T04:46:31.039Z,22.09
2016-05-30T04:47:31.009Z,22.06
2016-05-30T04:48:31.012Z,22.04
2016-05-30T04:49:31.000Z,22.02
2016-05-30T04:50:30.970Z,22.02
2016-05-30T04:51:31.161Z,22.02
2016-05-30T04:52:30.867Z,22.01
2016-05-30T04:53:30.932Z,22.06
2016-05-30T04:54:30.935Z,22.01
2016-05-30T04:55:30.906Z,22.14
2016-05-30T04:56:30.893Z,22.06
2016-05-30T04:57:30.724Z,22.09
2016-05-30T04:58:30.867Z,22.11
2016-05-30T04:59:31.151Z,22.12
2016-05-30T05:00:30.841Z,22.05
2016-05-30T05:01:30.829Z,22.11
2016-05-30T05:02:30.815Z,22.06
2016-05-30T05:03:30.662Z,22.08
2016-05-30T05:04:30.633Z,22.12
2016-05-30T05:05:30.776Z,22.08
2016-05-30T05:06:31.092Z,22.06
2016-05-30T05:07:30.532Z,22.04
2016-05-30T05:08:30.737Z,22.06
2016-05-30T05:09:30.725Z,22.06
2016-05-30T05:10:30.712Z,22.08
2016-05-30T05:11:30.698Z,22.06
2016-05-30T05:12:30.686Z,22.12
2016-05-30T05:13:30.673Z,22.09
2016-05-30T05:14:30.816Z,22.05
2016-05-30T05:15:30.631Z,22.14
2016-05-30T05:16:30.619Z,22.09
2016-05-30T05:17:30.622Z,22.12
2016-05-30T05:18:30.592Z,22.14
2016-05-30T05:19:30.580Z,22.09
2016-05-30T05:20:30.567Z,22.08
2016-05-30T05:21:30.570Z,22.12
2016-05-30T05:22:30.776Z,22.11
2016-05-30T05:23:30.544Z,22.08
2016-05-30T05:24:30.531Z,22.12
2016-05-30T05:25:30.533Z,22.06
2016-05-30T05:26:30.489Z,22.14
2016-05-30T05:27:30.492Z,22.11
2016-05-30T05:28:30.464Z,22.09
2016-05-30T05:29:30.466Z,22.11
2016-05-30T05:30:30.843Z,22.08
2016-05-30T05:31:30.425Z,22.01
2016-05-30T05:32:30.427Z,22.12
2016-05-30T05:33:30.399Z,22.06
2016-05-30T05:34:30.401Z,22.08
2016-05-30T05:35:30.373Z,22.06
2016-05-30T05:36:31.032Z,22.05
2016-05-30T05:37:30.065Z,22.04
2016-05-30T05:38:30.928Z,22.08
2016-05-30T05:39:30.337Z,22.04
2016-05-30T05:40:30.308Z,22.01
2016-05-30T05:41:30.296Z,22.06
2016-05-30T05:42:30.298Z,22.08
2016-05-30T05:43:30.113Z,21.99
2016-05-30T05:44:30.256Z,21.99
2016-05-30T05:45:30.243Z,22.04
2016-05-30T05:46:30.839Z,22.04
2016-05-30T05:47:30.218Z,22.05
2016-05-30T05:48:30.220Z,21.98
2016-05-30T05:49:30.192Z,22.04
2016-05-30T05:50:30.195Z,22.04
2016-05-30T05:51:30.463Z,21.99
2016-05-30T05:52:30.011Z,22.01
2016-05-30T05:53:30.139Z,22.04
2016-05-30T05:54:30.972Z,22.08
2016-05-30T05:55:30.114Z,22.04
2016-05-30T05:56:30.102Z,22.02
2016-05-30T05:57:30.088Z,22.08
2016-05-30T05:58:29.903Z,22.02
2016-05-30T05:59:30.063Z,22.05
2016-05-30T06:00:29.894Z,22.05
2016-05-30T06:01:29.880Z,22.05
2016-05-30T06:02:30.102Z,22.04
2016-05-30T06:03:30.011Z,22.01
2016-05-30T06:04:29.998Z,21.91
2016-05-30T06:05:29.969Z,21.93
2016-05-30T06:06:30.238Z,21.96
2016-05-30T06:07:30.037Z,21.96
2016-05-30T06:08:29.930Z,22.04
2016-05-30T06:09:29.933Z,22.04
2016-05-30T06:10:30.107Z,22.06
2016-05-30T06:11:29.892Z,22.05
2016-05-30T06:12:29.879Z,22.02
2016-05-30T06:13:29.865Z,22.04
2016-05-30T06:14:29.712Z,22.02
2016-05-30T06:15:29.840Z,21.94
2016-05-30T06:16:29.826Z,22.05
2016-05-30T06:17:29.814Z,22.01
2016-05-30T06:18:30.145Z,22.04
2016-05-30T06:19:29.788Z,22.04
2016-05-30T06:20:29.775Z,22.01
2016-05-30T06:21:29.762Z,22.04
2016-05-30T06:22:30.358Z,22.02
2016-05-30T06:23:29.736Z,21.99
2016-05-30T06:24:29.723Z,21.98
2016-05-30T06:25:29.757Z,21.91
2016-05-30T06:26:30.150Z,22.01
2016-05-30T06:27:29.685Z,22.06
2016-05-30T06:28:29.515Z,22.04
2016-05-30T06:29:29.658Z,21.93
2016-05-30T06:30:29.505Z,22.02
2016-05-30T06:31:29.616Z,22.01
2016-05-30T06:32:29.463Z,22.02
2016-05-30T06:33:29.747Z,22.02
2016-05-30T06:34:29.594Z,22.02
2016-05-30T06:35:29.582Z,22.05
2016-05-30T06:36:29.662Z,22.01
2016-05-30T06:37:29.430Z,22.02
2016-05-30T06:38:29.542Z,22.04
2016-05-30T06:39:29.529Z,22.06
2016-05-30T06:40:29.360Z,21.96
2016-05-30T06:41:29.893Z,21.91
2016-05-30T06:42:29.491Z,21.9
2016-05-30T06:43:29.478Z,21.91
2016-05-30T06:44:29.449Z,21.99
2016-05-30T06:45:29.451Z,21.94
2016-05-30T06:46:29.423Z,21.91
2016-05-30T06:47:29.270Z,22.04
2016-05-30T06:48:29.397Z,21.99
2016-05-30T06:49:29.791Z,22.06
2016-05-30T06:50:29.387Z,21.99
2016-05-30T06:51:30.249Z,21.99
2016-05-30T06:52:30.128Z,21.99
2016-05-30T06:53:29.333Z,21.96
2016-05-30T06:54:29.397Z,22.04
2016-05-30T06:55:29.323Z,22.04
2016-05-30T06:56:29.309Z,22.02
2016-05-30T06:57:29.828Z,21.99
2016-05-30T06:58:30.003Z,21.94
2016-05-30T06:59:29.255Z,21.94
2016-05-30T07:00:29.242Z,21.94
2016-05-30T07:01:29.229Z,22.05
2016-05-30T07:02:29.216Z,22.02
2016-05-30T07:03:29.203Z,21.96
2016-05-30T07:04:29.175Z,21.98
2016-05-30T07:05:29.772Z,21.94
2016-05-30T07:06:30.180Z,21.99
2016-05-30T07:07:29.589Z,21.94
2016-05-30T07:08:29.138Z,22.04
2016-05-30T07:09:29.110Z,21.98
2016-05-30T07:10:29.112Z,22.01
2016-05-30T07:11:29.100Z,21.93
2016-05-30T07:12:29.087Z,22.04
2016-05-30T07:13:29.151Z,22.02
2016-05-30T07:14:29.062Z,22.02
2016-05-30T07:15:28.892Z,21.93
2016-05-30T07:16:29.020Z,21.83
2016-05-30T07:17:28.866Z,21.71
2016-05-30T07:18:28.838Z,21.52
2016-05-30T07:19:28.825Z,21.55
2016-05-30T07:20:28.812Z,21.51
2016-05-30T07:21:29.095Z,21.51
2016-05-30T07:22:28.958Z,21.37
2016-05-30T07:23:28.929Z,21.49
2016-05-30T07:24:28.759Z,21.52
2016-05-30T07:25:28.903Z,21.51
2016-05-30T07:26:28.750Z,21.42
2016-05-30T07:27:28.893Z,21.38
2016-05-30T07:28:28.864Z,21.34
2016-05-30T07:29:28.898Z,21.26
2016-05-30T07:30:28.855Z,21.34
2016-05-30T07:31:28.825Z,21.27
2016-05-30T07:32:28.813Z,21.27
2016-05-30T07:33:28.799Z,21.31
2016-05-30T07:34:28.786Z,21.21
2016-05-30T07:35:28.789Z,21.21
2016-05-30T07:36:29.433Z,21.28
2016-05-30T07:37:28.904Z,21.28
2016-05-30T07:38:28.735Z,21.27
2016-05-30T07:39:28.721Z,21.19
2016-05-30T07:40:28.725Z,21.26
2016-05-30T07:41:28.712Z,21.3
2016-05-30T07:42:28.683Z,21.26
2016-05-30T07:43:28.654Z,21.22
2016-05-30T07:44:28.658Z,21.18
2016-05-30T07:45:29.988Z,21.09
2016-05-30T07:46:28.631Z,21.08
2016-05-30T07:47:28.618Z,21.12
2016-05-30T07:48:28.606Z,21.21
2016-05-30T07:49:28.593Z,21.15
2016-05-30T07:50:28.579Z,21.26
2016-05-30T07:51:29.114Z,21.11
2016-05-30T07:52:28.522Z,21.13
2016-05-30T07:53:28.525Z,21.13
2016-05-30T07:54:28.356Z,21.12
2016-05-30T07:55:28.343Z,21.16
2016-05-30T07:56:28.487Z,21.22
2016-05-30T07:57:28.473Z,21.19
2016-05-30T07:58:28.461Z,21.21
2016-05-30T07:59:28.447Z,21.15
2016-05-30T08:00:28.278Z,21.21
2016-05-30T08:01:28.422Z,21.09
2016-05-30T08:02:28.409Z,21.05
2016-05-30T08:03:28.396Z,21.08
2016-05-30T08:04:28.367Z,21.11
2016-05-30T08:05:28.355Z,21.15
2016-05-30T08:06:28.529Z,21.15
2016-05-30T08:07:28.485Z,21.16
2016-05-30T08:08:28.316Z,21.11
2016-05-30T08:09:28.335Z,21.11
2016-05-30T08:10:28.305Z,21.15
2016-05-30T08:11:28.293Z,21.18
2016-05-30T08:12:28.263Z,21.21
2016-05-30T08:13:28.251Z,21.26
2016-05-30T08:14:28.238Z,21.3
2016-05-30T08:15:28.085Z,21.28
2016-05-30T08:16:28.213Z,21.26
2016-05-30T08:17:28.215Z,21.22
2016-05-30T08:18:28.077Z,21.22
2016-05-30T08:19:28.173Z,21.28
2016-05-30T08:20:28.160Z,21.21
2016-05-30T08:21:28.492Z,21.24
2016-05-30T08:22:27.979Z,21.22
2016-05-30T08:23:28.123Z,21.24
2016-05-30T08:24:28.092Z,21.16
2016-05-30T08:25:28.095Z,21.12
2016-05-30T08:26:28.130Z,21.21
2016-05-30T08:27:28.054Z,21.27
2016-05-30T08:28:27.901Z,21.28
2016-05-30T08:29:28.028Z,21.15
2016-05-30T08:30:27.859Z,21.27
2016-05-30T08:31:27.846Z,21.26
2016-05-30T08:32:27.989Z,21.24
2016-05-30T08:33:27.977Z,21.28
2016-05-30T08:34:28.120Z,21.24
2016-05-30T08:35:27.950Z,21.26
2016-05-30T08:36:28.844Z,21.26
2016-05-30T08:37:27.785Z,21.26
2016-05-30T08:38:27.896Z,21.26
2016-05-30T08:39:27.899Z,21.28
2016-05-30T08:40:27.886Z,21.33
2016-05-30T08:41:27.874Z,21.36
2016-05-30T08:42:28.111Z,21.26
2016-05-30T08:43:27.831Z,21.26
2016-05-30T08:44:27.819Z,21.24
2016-05-30T08:45:27.837Z,21.27
2016-05-30T08:46:27.809Z,21.26
2016-05-30T08:47:27.795Z,21.28
2016-05-30T08:48:27.767Z,21.33
2016-05-30T08:49:27.785Z,21.22
2016-05-30T08:50:28.148Z,21.38
2016-05-30T08:51:27.573Z,21.38
2016-05-30T08:52:28.075Z,21.34
2016-05-30T08:53:27.717Z,21.34
2016-05-30T08:54:27.689Z,21.31
2016-05-30T08:55:27.676Z,21.4
2016-05-30T08:56:27.664Z,21.4
2016-05-30T08:57:27.667Z,21.45
2016-05-30T08:58:28.138Z,21.43
2016-05-30T08:59:27.469Z,21.43
2016-05-30T09:00:27.596Z,21.45
2016-05-30T09:01:27.599Z,21.58
2016-05-30T09:02:27.414Z,21.53
2016-05-30T09:03:27.401Z,21.46
2016-05-30T09:04:27.561Z,21.48
2016-05-30T09:05:27.531Z,21.51
2016-05-30T09:06:28.191Z,21.59
2016-05-30T09:07:27.880Z,21.63
2016-05-30T09:08:27.509Z,21.75
2016-05-30T09:09:27.480Z,21.74
2016-05-30T09:10:27.466Z,21.82
2016-05-30T09:11:27.454Z,21.85
2016-05-30T09:12:27.441Z,21.86
2016-05-30T09:13:27.444Z,21.83
2016-05-30T09:14:27.415Z,21.81
2016-05-30T09:15:27.418Z,21.83
2016-05-30T09:16:27.389Z,21.85
2016-05-30T09:17:27.376Z,21.82
2016-05-30T09:18:27.363Z,21.98
2016-05-30T09:19:27.351Z,21.89
2016-05-30T09:20:27.338Z,21.98
2016-05-30T09:21:27.028Z,21.94
2016-05-30T09:22:27.452Z,21.98
2016-05-30T09:23:27.298Z,21.96
2016-05-30T09:24:27.286Z,21.94
2016-05-30T09:25:27.117Z,21.94
2016-05-30T09:26:27.260Z,21.99
2016-05-30T09:27:27.247Z,21.98
2016-05-30T09:28:27.249Z,22.12
2016-05-30T09:29:27.206Z,22.09
2016-05-30T09:30:27.442Z,22.06
2016-05-30T09:31:27.023Z,22.01
2016-05-30T09:32:27.183Z,21.74
2016-05-30T09:33:26.998Z,21.77
2016-05-30T09:34:27.141Z,21.63
2016-05-30T09:35:27.128Z,21.55
2016-05-30T09:36:27.130Z,21.59
2016-05-30T09:37:27.103Z,21.49
2016-05-30T09:38:27.433Z,21.61
2016-05-30T09:39:27.060Z,21.51
2016-05-30T09:40:27.063Z,21.49
2016-05-30T09:41:27.050Z,21.49
2016-05-30T09:42:27.052Z,21.51
2016-05-30T09:43:27.009Z,21.61
2016-05-30T09:44:27.011Z,21.73
2016-05-30T09:45:27.092Z,21.79
2016-05-30T09:46:27.471Z,21.89
2016-05-30T09:47:26.973Z,22.02
2016-05-30T09:48:26.959Z,22.02
2016-05-30T09:49:26.932Z,22.09
2016-05-30T09:50:26.918Z,22.11
2016-05-30T09:51:26.749Z,22.08
2016-05-30T09:52:27.126Z,22.06
2016-05-30T09:53:27.082Z,22.15
2016-05-30T09:54:26.709Z,22.17
2016-05-30T09:55:26.853Z,22.12
2016-05-30T09:56:26.840Z,22.14
2016-05-30T09:57:26.812Z,22.15
2016-05-30T09:58:26.814Z,22.19
2016-05-30T09:59:26.645Z,22.14
2016-05-30T10:00:26.633Z,22.17
2016-05-30T10:01:27.057Z,22.14
2016-05-30T10:02:26.434Z,22.11
2016-05-30T10:03:26.766Z,22.15
2016-05-30T10:04:26.722Z,22.12
2016-05-30T10:05:26.584Z,22.2
2016-05-30T10:06:27.430Z,22.15
2016-05-30T10:07:26.370Z,22.14
2016-05-30T10:08:26.873Z,22.17
2016-05-30T10:09:26.501Z,22.2
2016-05-30T10:10:26.660Z,22.29
2016-05-30T10:11:26.631Z,22.24
2016-05-30T10:12:26.619Z,22.2
2016-05-30T10:13:26.605Z,22.24
2016-05-30T10:14:26.577Z,22.33
2016-05-30T10:15:26.580Z,22.3
2016-05-30T10:16:27.019Z,22.24
2016-05-30T10:17:26.554Z,22.3
2016-05-30T10:18:26.540Z,22.39
2016-05-30T10:19:26.527Z,22.35
2016-05-30T10:20:26.515Z,22.3
2016-05-30T10:21:26.689Z,22.42
2016-05-30T10:22:26.754Z,22.31
2016-05-30T10:23:26.476Z,22.36
2016-05-30T10:24:27.010Z,22.41
2016-05-30T10:25:26.465Z,22.33
2016-05-30T10:26:26.421Z,22.33
2016-05-30T10:27:26.409Z,22.36
2016-05-30T10:28:26.395Z,22.31
2016-05-30T10:29:26.382Z,22.35
2016-05-30T10:30:26.370Z,22.35
2016-05-30T10:31:26.216Z,22.36
2016-05-30T10:32:27.000Z,22.44
2016-05-30T10:33:26.331Z,22.38
2016-05-30T10:34:26.317Z,22.48
2016-05-30T10:35:26.320Z,22.52
2016-05-30T10:36:27.401Z,22.54
2016-05-30T10:37:26.201Z,22.49
2016-05-30T10:38:26.266Z,22.38
2016-05-30T10:39:26.253Z,22.39
2016-05-30T10:40:29.490Z,22.51
2016-05-30T10:41:26.525Z,22.51
2016-05-30T10:42:26.214Z,22.56
2016-05-30T10:43:25.889Z,22.48
2016-05-30T10:44:26.189Z,22.52
2016-05-30T10:45:26.175Z,22.48
2016-05-30T10:46:26.162Z,22.51
2016-05-30T10:47:26.166Z,22.48
2016-05-30T10:48:26.137Z,22.54
2016-05-30T10:49:26.514Z,22.57
2016-05-30T10:50:26.110Z,22.59
2016-05-30T10:51:25.974Z,22.52
2016-05-30T10:52:26.866Z,22.56
2016-05-30T10:53:26.072Z,22.63
2016-05-30T10:54:26.060Z,22.57
2016-05-30T10:55:26.062Z,22.45
2016-05-30T10:56:26.127Z,22.56
2016-05-30T10:57:26.521Z,22.59
2016-05-30T10:58:25.851Z,22.57
2016-05-30T10:59:25.838Z,22.52
2016-05-30T11:00:25.965Z,22.59
2016-05-30T11:01:25.812Z,22.49
2016-05-30T11:02:25.800Z,22.56
2016-05-30T11:03:25.786Z,22.45
2016-05-30T11:04:26.164Z,22.46
2016-05-30T11:05:25.745Z,22.56
2016-05-30T11:06:26.122Z,22.51
2016-05-30T11:07:26.516Z,22.46
2016-05-30T11:08:25.862Z,22.45
2016-05-30T11:09:25.880Z,22.45
2016-05-30T11:10:25.836Z,22.45
2016-05-30T11:11:25.683Z,22.54
2016-05-30T11:12:26.170Z,22.45
2016-05-30T11:13:25.797Z,22.52
2016-05-30T11:14:25.785Z,22.45
2016-05-30T11:15:25.772Z,22.45
2016-05-30T11:16:25.774Z,22.44
2016-05-30T11:17:25.746Z,22.54
2016-05-30T11:18:25.733Z,22.52
2016-05-30T11:19:25.736Z,22.51
2016-05-30T11:20:26.160Z,22.41
2016-05-30T11:21:25.913Z,22.48
2016-05-30T11:22:26.213Z,22.38
2016-05-30T11:23:25.669Z,22.39
2016-05-30T11:24:25.499Z,22.35
2016-05-30T11:25:25.658Z,22.39
2016-05-30T11:26:25.473Z,22.36
2016-05-30T11:27:25.617Z,22.3
2016-05-30T11:28:25.447Z,22.31
2016-05-30T11:29:25.576Z,22.31
2016-05-30T11:30:25.578Z,22.36
2016-05-30T11:31:25.565Z,22.44
2016-05-30T11:32:25.567Z,22.33
2016-05-30T11:33:25.570Z,22.29
2016-05-30T11:34:25.526Z,22.42
2016-05-30T11:35:25.514Z,22.42
2016-05-30T11:36:27.141Z,22.31
2016-05-30T11:37:25.659Z,22.41
2016-05-30T11:38:25.333Z,22.33
2016-05-30T11:39:25.306Z,22.35
2016-05-30T11:40:25.292Z,22.36
2016-05-30T11:41:25.419Z,22.35
2016-05-30T11:42:25.266Z,22.41
2016-05-30T11:43:25.410Z,22.35
2016-05-30T11:44:26.084Z,22.38
2016-05-30T11:45:25.398Z,22.45
2016-05-30T11:46:25.407Z,22.52
2016-05-30T11:47:25.398Z,22.46
2016-05-30T11:48:25.421Z,22.39
2016-05-30T11:49:25.443Z,22.38
2016-05-30T11:50:25.426Z,22.35
2016-05-30T11:51:25.436Z,22.41
2016-05-30T11:52:26.868Z,22.33
2016-05-30T11:53:25.253Z,22.52
2016-05-30T11:54:25.435Z,22.45
2016-05-30T11:55:25.394Z,22.48
2016-05-30T11:56:25.477Z,22.48
2016-05-30T11:57:25.374Z,22.38
2016-05-30T11:58:25.363Z,22.46
2016-05-30T11:59:25.197Z,22.45
2016-05-30T12:00:26.389Z,22.54
2016-05-30T12:01:25.158Z,22.44
2016-05-30T12:02:25.162Z,22.41
2016-05-30T12:03:25.291Z,22.44
2016-05-30T12:04:25.279Z,22.33
2016-05-30T12:05:25.298Z,22.39
2016-05-30T12:06:25.255Z,22.36
2016-05-30T12:07:25.664Z,22.31
2016-05-30T12:08:25.682Z,22.44
2016-05-30T12:09:25.232Z,22.39
2016-05-30T12:10:25.204Z,22.44
2016-05-30T12:11:25.035Z,22.38
2016-05-30T12:12:25.178Z,22.48
2016-05-30T12:13:25.165Z,22.49
2016-05-30T12:14:25.152Z,22.49
2016-05-30T12:15:25.451Z,22.49
2016-05-30T12:16:25.126Z,22.48
2016-05-30T12:17:25.145Z,22.54
2016-05-30T12:18:25.101Z,22.49
2016-05-30T12:19:25.103Z,22.52
2016-05-30T12:20:24.919Z,22.51
2016-05-30T12:21:25.062Z,22.48
2016-05-30T12:22:25.611Z,22.44
2016-05-30T12:23:25.458Z,22.45
2016-05-30T12:24:24.867Z,22.49
2016-05-30T12:25:25.010Z,22.48
2016-05-30T12:26:24.841Z,22.46
2016-05-30T12:27:25.000Z,22.48
2016-05-30T12:28:24.830Z,22.49
2016-05-30T12:29:24.818Z,22.48
2016-05-30T12:30:24.774Z,22.49
2016-05-30T12:31:25.324Z,22.48
2016-05-30T12:32:24.919Z,22.48
2016-05-30T12:33:24.907Z,22.45
2016-05-30T12:34:24.893Z,22.46
2016-05-30T12:35:24.896Z,22.51
2016-05-30T12:36:24.712Z,22.51
2016-05-30T12:37:24.871Z,22.42
2016-05-30T12:38:24.842Z,22.57
2016-05-30T12:39:25.423Z,22.52
2016-05-30T12:40:24.816Z,22.54
2016-05-30T12:41:24.662Z,22.49
2016-05-30T12:42:24.790Z,22.51
2016-05-30T12:43:24.777Z,22.46
2016-05-30T12:44:24.624Z,22.48
2016-05-30T12:45:24.767Z,22.39
2016-05-30T12:46:24.582Z,22.52
2016-05-30T12:47:25.428Z,22.46
2016-05-30T12:48:24.713Z,22.48
2016-05-30T12:49:24.715Z,22.41
2016-05-30T12:50:24.671Z,22.49
2016-05-30T12:51:25.017Z,22.51
2016-05-30T12:52:24.786Z,22.56
2016-05-30T12:53:24.648Z,22.52
2016-05-30T12:54:24.635Z,22.54